createdAt,value
2022-09-07T00:00:24.486Z,3.63
2022-09-07T00:03:51.582Z,3.80
2022-09-07T00:06:51.510Z,3.65
2022-09-07T00:10:03.553Z,3.80
2022-09-07T00:13:06.518Z,5.67
2022-09-07T00:16:30.624Z,4.83
2022-09-07T00:19:44.556Z,4.05
2022-09-07T00:22:58.593Z,3.87
2022-09-07T00:25:58.637Z,5.20
2022-09-07T00:29:25.612Z,7.93
2022-09-07T00:32:28.605Z,5.25
2022-09-07T00:35:54.589Z,3.50
2022-09-07T00:39:09.661Z,3.50
2022-09-07T00:42:33.631Z,5.73
2022-09-07T00:45:45.660Z,5.60
2022-09-07T00:49:09.651Z,3.95
2022-09-07T00:52:25.651Z,3.55
2022-09-07T00:55:50.776Z,4.03
2022-09-07T00:59:02.774Z,5.30
2022-09-07T01:02:27.812Z,3.13
2022-09-07T01:05:40.754Z,5.85
2022-09-07T01:09:08.694Z,3.70
2022-09-07T01:12:20.744Z,5.53
2022-09-07T01:15:44.820Z,4.03
2022-09-07T01:19:00.778Z,4.10
2022-09-07T01:22:25.758Z,6.67
2022-09-07T01:25:42.790Z,6.10
2022-09-07T01:29:08.844Z,6.13
2022-09-07T01:32:20.780Z,5.97
2022-09-07T01:35:45.801Z,4.75
2022-09-07T01:38:58.812Z,6.30
2022-09-07T01:42:23.860Z,4.77
2022-09-07T01:45:39.833Z,4.80
2022-09-07T01:49:04.806Z,4.67
2022-09-07T01:52:16.859Z,4.10
2022-09-07T01:55:40.847Z,6.57
2022-09-07T01:58:52.880Z,3.87
2022-09-07T02:02:18.126Z,4.30
2022-09-07T02:05:41.963Z,3.67
2022-09-07T02:08:53.894Z,3.40
2022-09-07T02:12:21.928Z,3.23
2022-09-07T02:15:35.002Z,3.30
2022-09-07T02:19:00.968Z,3.20
2022-09-07T02:22:12.955Z,3.17
2022-09-07T02:25:36.965Z,3.20
2022-09-07T02:28:48.942Z,3.25
2022-09-07T02:32:12.986Z,5.85
2022-09-07T02:35:27.008Z,3.17
2022-09-07T02:38:38.993Z,2.47
2022-09-07T02:41:52.996Z,3.37
2022-09-07T02:45:08.035Z,3.60
2022-09-07T02:48:23.064Z,4.70
2022-09-07T02:51:49.033Z,2.30
2022-09-07T02:55:04.042Z,2.65
2022-09-07T02:58:30.191Z,2.70
2022-09-07T03:01:43.182Z,2.93
2022-09-07T03:05:08.064Z,2.63
2022-09-07T03:08:22.068Z,5.90
2022-09-07T03:11:46.105Z,2.73
2022-09-07T03:14:58.126Z,5.00
2022-09-07T03:18:22.112Z,3.90
2022-09-07T03:21:22.113Z,3.70
2022-09-07T03:24:50.155Z,3.93
2022-09-07T03:28:02.128Z,3.75
2022-09-07T03:31:26.256Z,4.80
2022-09-07T03:34:39.191Z,4.67
2022-09-07T03:38:03.300Z,5.53
2022-09-07T03:41:23.186Z,4.80
2022-09-07T03:44:35.281Z,3.75
2022-09-07T03:47:35.199Z,4.20
2022-09-07T03:50:47.212Z,5.00
2022-09-07T03:53:59.232Z,3.75
2022-09-07T03:57:26.212Z,3.73
2022-09-07T04:00:27.240Z,4.03
2022-09-07T04:03:51.247Z,4.57
2022-09-07T04:07:03.263Z,4.03
2022-09-07T04:10:28.280Z,4.50
2022-09-07T04:13:42.364Z,4.63
2022-09-07T04:16:54.420Z,4.30
2022-09-07T04:19:54.302Z,5.47
2022-09-07T04:23:09.316Z,4.40
2022-09-07T04:26:09.366Z,6.93
2022-09-07T04:29:35.332Z,4.57
2022-09-07T04:32:35.337Z,4.43
2022-09-07T04:36:00.387Z,4.57
2022-09-07T04:39:12.372Z,4.87
2022-09-07T04:42:24.390Z,7.37
2022-09-07T04:45:38.409Z,5.00
2022-09-07T04:48:50.484Z,4.77
2022-09-07T04:52:02.422Z,4.90
2022-09-07T04:55:14.405Z,6.60
2022-09-07T04:58:26.449Z,5.70
2022-09-07T05:01:51.511Z,9.17
2022-09-07T05:04:51.462Z,8.30
2022-09-07T05:08:03.481Z,13.15
2022-09-07T05:11:16.436Z,14.20
2022-09-07T05:14:29.519Z,12.40
2022-09-07T05:17:44.511Z,14.17
2022-09-07T05:20:56.552Z,10.80
2022-09-07T05:24:08.638Z,11.23
2022-09-07T05:27:21.506Z,12.43
2022-09-07T05:36:48.546Z,13.83
2022-09-07T05:40:00.655Z,14.00
2022-09-07T05:43:00.636Z,11.63
2022-09-07T05:46:12.706Z,14.43
2022-09-07T05:49:26.558Z,10.90
2022-09-07T05:52:38.607Z,13.60
2022-09-07T05:55:41.660Z,11.20
2022-09-07T05:59:12.626Z,10.50
2022-09-07T06:02:24.754Z,9.93
2022-09-07T06:05:49.663Z,8.70
2022-09-07T06:09:01.715Z,8.87
2022-09-07T06:12:13.697Z,10.83
2022-09-07T06:15:28.663Z,9.10
2022-09-07T06:18:53.653Z,12.10
2022-09-07T06:22:07.662Z,8.00
2022-09-07T06:25:21.825Z,9.47
2022-09-07T06:28:21.708Z,7.97
2022-09-07T06:34:57.719Z,9.80
2022-09-07T06:38:31.256Z,8.27
2022-09-07T06:44:51.765Z,7.27
2022-09-07T06:48:03.773Z,6.97
2022-09-07T06:51:27.750Z,6.25
2022-09-07T06:57:54.822Z,7.77
2022-09-07T07:01:09.838Z,9.67
2022-09-07T07:04:22.816Z,5.43
2022-09-07T07:07:34.796Z,5.90
2022-09-07T07:11:02.822Z,5.77
2022-09-07T07:14:02.836Z,8.20
2022-09-07T07:17:17.855Z,5.60
2022-09-07T07:20:18.839Z,5.87
2022-09-07T07:23:36.985Z,5.67
2022-09-07T07:26:50.907Z,8.87
2022-09-07T07:30:02.938Z,8.30
2022-09-07T07:33:25.810Z,5.90
2022-09-07T07:36:49.937Z,5.00
2022-09-07T07:43:19.902Z,5.70
2022-09-07T07:46:31.945Z,5.27
2022-09-07T07:49:43.933Z,5.63
2022-09-07T07:56:25.935Z,5.90
2022-09-07T07:59:39.988Z,7.80
2022-09-07T08:02:53.025Z,5.97
2022-09-07T08:06:17.967Z,6.13
2022-09-07T08:09:17.994Z,5.77
2022-09-07T08:12:37.001Z,5.30
2022-09-07T08:15:54.082Z,5.40
2022-09-07T08:19:06.983Z,6.60
2022-09-07T08:22:07.022Z,5.60
2022-09-07T08:25:20.043Z,5.90
2022-09-07T08:28:20.033Z,5.80
2022-09-07T08:31:46.081Z,5.57
2022-09-07T08:35:00.124Z,6.80
2022-09-07T08:38:12.093Z,6.10
2022-09-07T08:41:24.098Z,6.47
2022-09-07T08:44:48.160Z,6.27
2022-09-07T08:48:02.109Z,7.00
2022-09-07T08:51:26.126Z,6.80
2022-09-07T08:54:38.125Z,6.80
2022-09-07T08:58:02.249Z,6.90
2022-09-07T09:04:31.426Z,7.77
2022-09-07T09:07:42.166Z,7.53
2022-09-07T09:11:08.150Z,6.60
2022-09-07T09:14:20.230Z,7.07
2022-09-07T09:17:44.158Z,8.90
2022-09-07T09:20:58.203Z,7.00
2022-09-07T09:24:23.242Z,7.43
2022-09-07T09:27:24.282Z,6.80
2022-09-07T09:30:48.253Z,8.35
2022-09-07T09:33:48.323Z,6.40
2022-09-07T09:37:14.264Z,8.43
2022-09-07T09:40:14.416Z,7.00
2022-09-07T09:43:41.245Z,6.53
2022-09-07T09:52:28.939Z,6.10
2022-09-07T09:53:40.394Z,8.20
2022-09-07T09:57:04.288Z,8.47
2022-09-07T10:00:27.884Z,6.13
2022-09-07T10:04:01.017Z,6.50
2022-09-07T10:06:55.329Z,7.00
2022-09-07T10:10:21.346Z,6.00
2022-09-07T10:13:33.373Z,6.57
2022-09-07T10:17:02.060Z,5.87
2022-09-07T10:20:02.466Z,8.55
2022-09-07T10:23:26.394Z,6.57
2022-09-07T10:26:46.378Z,10.90
2022-09-07T10:29:58.409Z,6.10
2022-09-07T10:33:15.441Z,5.53
2022-09-07T10:36:39.427Z,6.57
2022-09-07T10:39:51.490Z,5.30
2022-09-07T10:43:23.634Z,6.47
2022-09-07T10:53:18.305Z,6.20
2022-09-07T10:56:32.500Z,6.47
2022-09-07T11:03:29.807Z,5.80
2022-09-07T11:06:29.509Z,5.25
2022-09-07T11:09:55.647Z,5.20
2022-09-07T11:13:10.604Z,4.67
2022-09-07T11:16:52.174Z,4.60
2022-09-07T11:19:48.545Z,6.10
2022-09-07T11:23:12.541Z,4.40
2022-09-07T11:26:26.571Z,4.33
2022-09-07T11:29:52.592Z,4.17
2022-09-07T11:33:06.605Z,4.63
2022-09-07T11:36:30.582Z,3.77
2022-09-07T11:39:45.725Z,7.57
2022-09-07T11:43:11.669Z,5.03
2022-09-07T11:46:26.688Z,4.97
2022-09-07T11:49:56.047Z,4.00
2022-09-07T11:53:04.651Z,4.53
2022-09-07T11:56:29.631Z,4.67
2022-09-07T11:59:46.705Z,5.90
2022-09-07T12:03:22.751Z,4.63
2022-09-07T12:06:53.688Z,3.70
2022-09-07T12:10:17.741Z,3.50
2022-09-07T12:13:46.814Z,4.27
2022-09-07T12:17:01.754Z,2.83
2022-09-07T12:20:36.770Z,2.77
2022-09-07T12:23:53.751Z,3.00
2022-09-07T12:27:21.754Z,3.43
2022-09-07T12:30:51.850Z,2.80
2022-09-07T12:34:15.771Z,2.80
2022-09-07T12:37:27.804Z,2.70
2022-09-07T12:41:10.834Z,2.33
2022-09-07T12:44:32.846Z,2.50
2022-09-07T12:47:57.814Z,2.30
2022-09-07T12:51:15.221Z,2.33
2022-09-07T12:54:41.861Z,2.60
2022-09-07T12:57:58.891Z,2.55
2022-09-07T13:01:25.946Z,2.83
2022-09-07T13:04:42.924Z,2.03
2022-09-07T13:08:12.898Z,2.27
2022-09-07T13:11:38.879Z,2.00
2022-09-07T13:15:03.879Z,2.40
2022-09-07T13:18:09.908Z,2.17
2022-09-07T13:21:40.930Z,2.00
2022-09-07T13:24:50.026Z,1.80
2022-09-07T13:28:17.913Z,1.90
2022-09-07T13:31:37.132Z,4.13
2022-09-07T13:35:11.994Z,4.97
2022-09-07T13:38:23.964Z,2.10
2022-09-07T13:41:49.009Z,2.57
2022-09-07T13:45:00.955Z,1.50
2022-09-07T13:48:30.032Z,2.83
2022-09-07T13:51:44.121Z,1.60
2022-09-07T13:55:13.100Z,1.50
2022-09-07T13:58:27.040Z,5.00
2022-09-07T14:01:51.081Z,2.10
2022-09-07T14:05:15.052Z,1.40
2022-09-07T14:08:29.029Z,1.40
2022-09-07T14:11:53.082Z,1.40
2022-09-07T14:14:56.080Z,1.85
2022-09-07T14:18:25.095Z,1.60
2022-09-07T14:21:42.100Z,1.85
2022-09-07T14:25:08.145Z,1.87
2022-09-07T14:28:08.095Z,1.60
2022-09-07T14:31:34.854Z,1.95
2022-09-07T14:34:46.183Z,1.50
2022-09-07T14:38:10.279Z,1.20
2022-09-07T14:41:27.172Z,1.43
2022-09-07T14:44:52.142Z,1.57
2022-09-07T14:47:53.198Z,1.23
2022-09-07T14:51:26.982Z,1.50
2022-09-07T14:54:17.188Z,1.90
2022-09-07T14:57:51.165Z,1.40
2022-09-07T15:04:16.259Z,1.40
2022-09-07T15:07:52.381Z,1.60
2022-09-07T15:11:40.493Z,1.53
2022-09-07T15:14:41.240Z,2.45
2022-09-07T15:17:54.293Z,1.75
2022-09-07T15:21:06.240Z,2.10
2022-09-07T15:24:19.307Z,1.43
2022-09-07T15:27:42.352Z,1.40
2022-09-07T15:34:08.316Z,2.15
2022-09-07T15:41:18.022Z,1.70
2022-09-07T15:44:02.344Z,1.50
2022-09-07T15:50:28.360Z,2.70
2022-09-07T16:00:07.415Z,1.95
2022-09-07T16:03:33.653Z,1.80
2022-09-07T16:06:48.158Z,2.40
2022-09-07T16:09:57.639Z,1.90
2022-09-07T16:13:02.309Z,2.30
2022-09-07T16:16:09.407Z,1.60
2022-09-07T16:19:23.491Z,1.90
2022-09-07T16:25:59.450Z,1.57
2022-09-07T16:29:14.481Z,1.60
2022-09-07T16:32:45.530Z,1.70
2022-09-07T16:35:41.492Z,1.70
2022-09-07T16:38:53.535Z,1.53
2022-09-07T16:42:08.963Z,1.70
2022-09-07T16:48:23.546Z,3.13
2022-09-07T16:51:37.554Z,1.90
2022-09-07T16:54:51.113Z,2.63
2022-09-07T17:01:01.596Z,4.03
2022-09-07T17:04:13.608Z,1.67
2022-09-07T17:07:39.644Z,2.43
2022-09-07T17:10:51.623Z,2.27
2022-09-07T17:14:16.595Z,2.20
2022-09-07T17:17:16.630Z,2.25
2022-09-07T17:20:28.627Z,2.20
2022-09-07T17:23:49.426Z,1.80
2022-09-07T17:26:53.634Z,1.70
2022-09-07T17:29:53.791Z,1.90
2022-09-07T17:33:05.747Z,1.93
2022-09-07T17:36:05.718Z,2.10
2022-09-07T17:39:31.746Z,2.17
2022-09-07T17:45:55.703Z,1.80
2022-09-07T17:48:55.781Z,2.27
2022-09-07T17:52:07.729Z,1.90
2022-09-07T17:55:20.716Z,1.70
2022-09-07T17:58:32.797Z,1.73
2022-09-07T18:01:44.761Z,1.97
2022-09-07T18:04:56.835Z,1.97
2022-09-07T18:08:00.441Z,1.60
2022-09-07T18:14:37.811Z,1.97
2022-09-07T18:17:49.830Z,2.20
2022-09-07T18:20:49.827Z,1.60
2022-09-07T18:24:17.871Z,1.43
2022-09-07T18:27:32.846Z,2.60
2022-09-07T18:31:00.046Z,1.53
2022-09-07T18:34:17.889Z,1.33
2022-09-07T18:37:31.512Z,1.40
2022-09-07T18:40:41.883Z,1.50
2022-09-07T18:45:27.271Z,1.70
2022-09-07T18:47:08.893Z,1.15
2022-09-07T18:50:23.936Z,1.30
2022-09-07T18:53:35.907Z,1.60
2022-09-07T18:56:48.924Z,1.27
2022-09-07T19:00:01.959Z,2.37
2022-09-07T19:03:13.957Z,1.10
2022-09-07T19:06:25.983Z,1.50
2022-09-07T19:09:38.067Z,1.40
2022-09-07T19:12:38.670Z,2.20
2022-09-07T19:16:04.102Z,1.93
2022-09-07T19:19:16.018Z,2.27
2022-09-07T19:22:31.050Z,1.47
2022-09-07T19:25:32.045Z,1.80
2022-09-07T19:28:57.025Z,2.47
2022-09-07T19:32:17.038Z,1.70
2022-09-07T19:35:29.093Z,5.30
2022-09-07T19:38:29.043Z,1.80
2022-09-07T19:41:42.061Z,1.67
2022-09-07T19:44:42.242Z,1.77
2022-09-07T19:48:08.081Z,1.80
2022-09-07T19:51:20.063Z,2.73
2022-09-07T19:54:32.121Z,2.10
2022-09-07T19:57:32.120Z,1.90
2022-09-07T20:00:56.261Z,2.07
2022-09-07T20:04:22.247Z,1.90
2022-09-07T20:07:22.123Z,2.53
2022-09-07T20:10:34.190Z,1.80
2022-09-07T20:13:34.260Z,3.00
2022-09-07T20:16:58.173Z,2.40
2022-09-07T20:20:12.203Z,4.73
2022-09-07T20:23:24.231Z,2.57
2022-09-07T20:26:39.225Z,2.20
2022-09-07T20:29:51.221Z,3.97
2022-09-07T20:32:52.217Z,3.50
2022-09-07T20:36:18.215Z,3.47
2022-09-07T20:39:30.334Z,3.20
2022-09-07T20:42:43.238Z,3.50
2022-09-07T20:45:55.240Z,3.53
2022-09-07T20:49:10.305Z,3.53
2022-09-07T20:52:24.315Z,3.50
2022-09-07T20:55:36.462Z,4.50
2022-09-07T20:58:36.485Z,3.90
2022-09-07T21:01:52.474Z,4.23
2022-09-07T21:04:52.298Z,3.97
2022-09-07T21:08:21.432Z,5.33
2022-09-07T21:11:33.324Z,3.73
2022-09-07T21:14:35.414Z,4.33
2022-09-07T21:17:38.349Z,3.35
2022-09-07T21:21:19.355Z,6.00
2022-09-07T21:24:22.394Z,4.63
2022-09-07T21:27:38.224Z,4.85
2022-09-07T21:30:34.398Z,7.73
2022-09-07T21:33:58.410Z,4.23
2022-09-07T21:36:58.430Z,8.35
2022-09-07T21:40:23.545Z,3.50
2022-09-07T21:43:23.445Z,4.95
2022-09-07T21:46:51.918Z,5.37
2022-09-07T21:49:52.496Z,4.30
2022-09-07T21:53:04.454Z,4.60
2022-09-07T21:56:20.514Z,4.65
2022-09-07T21:59:32.481Z,5.00
2022-09-07T22:02:32.497Z,5.20
2022-09-07T22:06:00.507Z,5.40
2022-09-07T22:09:00.532Z,5.07
2022-09-07T22:12:26.614Z,5.83
2022-09-07T22:15:29.587Z,7.53
2022-09-07T22:18:42.590Z,5.35
2022-09-07T22:21:54.570Z,5.07
2022-09-07T22:25:09.590Z,6.47
2022-09-07T22:28:22.633Z,5.10
2022-09-07T22:31:46.709Z,5.83
2022-09-07T22:34:46.616Z,5.27
2022-09-07T22:38:10.587Z,5.80
2022-09-07T22:41:30.632Z,6.83
2022-09-07T22:44:56.656Z,6.80
2022-09-07T22:47:56.646Z,7.07
2022-09-07T22:51:21.663Z,6.70
2022-09-07T22:54:33.704Z,6.23
2022-09-07T22:57:45.685Z,5.70
2022-09-07T23:01:02.734Z,6.85
2022-09-07T23:04:31.518Z,6.75
2022-09-07T23:07:27.765Z,6.37
2022-09-07T23:10:39.676Z,6.53
2022-09-07T23:13:39.758Z,7.93
2022-09-07T23:17:05.726Z,5.40
2022-09-07T23:20:05.747Z,7.85
2022-09-07T23:23:17.758Z,7.85
2022-09-07T23:26:29.754Z,8.60
2022-09-07T23:29:41.844Z,7.40
2022-09-07T23:32:55.754Z,8.20
2022-09-07T23:36:19.805Z,6.63
2022-09-07T23:39:31.848Z,8.70
2022-09-07T23:42:43.816Z,7.00
2022-09-07T23:45:43.852Z,9.03
2022-09-07T23:49:09.802Z,8.67
2022-09-07T23:52:09.809Z,8.00
2022-09-07T23:55:36.886Z,8.10
2022-09-07T23:58:36.866Z,8.20
